Time;durP1;ratioP1;P1;durP2;ratioP2;P2;SDS_P1;SDS_P2;PMS_P1;PMS_P2;Temp;Humidity;BMP_temperature;BMP_pressure;BME280_temperature;BME280_humidity;BME280_pressure;Samples;Min_cycle;Max_cycle;Signal;HPM_P1;HPM_P2
2024/03/13 00:00:13;;;;;;;17.60;10.50;;;;;;;12.53;63.65;101221.00;4902211;28;118948;-66
2024/03/13 00:02:45;;;;;;;15.85;10.02;;;;;;;12.55;63.75;101224.44;4907728;28;124146;-66
2024/03/13 00:05:13;;;;;;;15.43;10.07;;;;;;;12.56;63.76;101218.19;4910373;28;124183;-66
2024/03/13 00:07:43;;;;;;;13.82;10.07;;;;;;;12.58;63.77;101219.00;4913747;28;120637;-66
2024/03/13 00:10:11;;;;;;;14.18;9.35;;;;;;;12.59;63.77;101223.34;4911577;28;119237;-66
2024/03/13 00:12:44;;;;;;;14.40;9.93;;;;;;;12.58;63.77;101218.09;4908822;28;124298;-66
2024/03/13 00:15:11;;;;;;;12.60;9.18;;;;;;;12.59;63.76;101210.06;4912957;28;124555;-66
2024/03/13 00:17:38;;;;;;;13.25;9.50;;;;;;;12.59;63.84;101212.72;4919749;28;120379;-66
2024/03/13 00:20:11;;;;;;;14.43;9.68;;;;;;;12.59;63.73;101226.00;4908447;28;121631;-64
2024/03/13 00:22:40;;;;;;;13.30;9.45;;;;;;;12.59;63.83;101226.00;4905786;28;125007;-66
2024/03/13 00:25:11;;;;;;;13.32;8.95;;;;;;;12.61;63.80;101224.13;4911144;28;123643;-65
2024/03/13 00:27:41;;;;;;;12.73;8.90;;;;;;;12.61;63.89;101226.81;4907958;28;119763;-65
2024/03/13 00:30:10;;;;;;;12.90;9.27;;;;;;;12.63;63.81;101227.59;4918485;28;119416;-65
2024/03/13 00:32:37;;;;;;;12.73;9.32;;;;;;;12.64;63.88;101224.00;4905247;28;124383;-65
2024/03/13 00:35:06;;;;;;;13.43;9.10;;;;;;;12.65;63.77;101230.19;4900052;28;124023;-65
2024/03/13 00:37:37;;;;;;;11.93;9.05;;;;;;;12.64;63.82;101233.78;4904241;28;120690;-65
2024/03/13 00:40:06;;;;;;;13.80;9.30;;;;;;;12.64;63.84;101229.31;4919303;28;118337;-65
2024/03/13 00:42:33;;;;;;;13.02;9.65;;;;;;;12.64;63.82;101223.16;4901225;28;123488;-65
2024/03/13 00:45:02;;;;;;;13.60;9.70;;;;;;;12.65;63.82;101231.03;4899162;28;123962;-65
2024/03/13 00:47:29;;;;;;;13.27;9.85;;;;;;;12.65;63.95;101239.00;4900654;28;118135;-65
2024/03/13 00:49:58;;;;;;;13.35;9.50;;;;;;;12.66;63.98;101238.09;4923373;28;118355;-65
2024/03/13 00:52:27;;;;;;;15.02;10.35;;;;;;;12.70;63.97;101232.63;4905563;28;123111;-66
2024/03/13 00:54:55;;;;;;;15.00;10.13;;;;;;;12.72;63.94;101241.41;4920717;28;122993;-66
2024/03/13 00:57:22;;;;;;;13.75;10.13;;;;;;;12.73;63.96;101232.47;4903304;28;119446;-65
2024/03/13 00:59:50;;;;;;;14.45;10.60;;;;;;;12.75;63.92;101225.28;4905063;28;118783;-66
2024/03/13 01:02:17;;;;;;;14.73;10.95;;;;;;;12.76;63.93;101229.66;4898032;28;124127;-66
2024/03/13 01:04:45;;;;;;;15.73;10.40;;;;;;;12.77;63.90;101228.72;4901114;28;124403;-66
2024/03/13 01:07:12;;;;;;;15.20;9.73;;;;;;;12.77;63.91;101234.03;4899677;28;120500;-66
2024/03/13 01:09:40;;;;;;;14.57;10.43;;;;;;;12.76;64.07;101237.66;4910829;28;119865;-66
2024/03/13 01:12:08;;;;;;;14.38;10.13;;;;;;;12.76;63.97;101237.66;4896185;28;122887;-66
2024/03/13 01:14:35;;;;;;;13.15;9.95;;;;;;;12.76;64.02;101237.66;4900134;28;124742;-66
2024/03/13 01:17:03;;;;;;;14.07;9.35;;;;;;;12.78;64.06;101241.09;4897440;28;118359;-64
2024/03/13 01:19:34;;;;;;;13.93;9.63;;;;;;;12.79;64.04;101237.47;4903995;28;119017;-64
2024/03/13 01:22:12;;;;;;;14.43;10.00;;;;;;;12.81;64.07;101235.63;4898054;28;124373;-65
2024/03/13 01:24:42;;;;;;;12.30;9.55;;;;;;;12.82;64.10;101234.69;4899962;28;124284;-64
2024/03/13 01:27:10;;;;;;;13.93;9.88;;;;;;;12.84;64.15;101235.47;4901267;28;119470;-64
2024/03/13 01:29:41;;;;;;;12.45;9.00;;;;;;;12.86;64.06;101228.28;4897427;28;118871;-64
2024/03/13 01:32:11;;;;;;;11.60;9.40;;;;;;;12.88;64.13;101237.03;4895092;28;124769;-63
2024/03/13 01:34:39;;;;;;;13.23;9.25;;;;;;;12.89;64.05;101236.13;4896860;28;124836;-64
2024/03/13 01:39:52;;;;;;;;;;;;;;;12.91;63.85;101226.28;4897273;28;120313;-64
2024/03/13 01:56:26;;;;;;;12.90;8.90;;;;;;;12.96;64.03;101213.63;4898326;28;124351;-64
2024/03/13 01:59:20;;;;;;;11.90;8.47;;;;;;;12.97;64.04;101214.47;4885120;28;119255;-64
2024/03/13 02:04:35;;;;;;;13.80;9.75;;;;;;;12.98;64.21;101211.75;4901268;28;123155;-64
2024/03/13 02:07:03;;;;;;;14.25;9.98;;;;;;;13.00;64.12;101209.88;4901656;28;123851;-64
2024/03/13 02:09:31;;;;;;;14.10;10.10;;;;;;;13.00;64.16;101215.19;4891075;28;120354;-64
2024/03/13 02:11:58;;;;;;;14.05;9.95;;;;;;;12.99;64.23;101213.44;4904118;28;118153;-64
2024/03/13 02:14:28;;;;;;;14.68;10.07;;;;;;;13.00;64.13;101215.19;4895651;28;124174;-64
2024/03/13 02:16:55;;;;;;;15.88;10.23;;;;;;;13.02;64.21;101218.63;4892976;28;124452;-64
2024/03/13 02:19:24;;;;;;;15.57;10.40;;;;;;;13.04;64.22;101219.41;4897509;28;119290;-64
2024/03/13 02:22:00;;;;;;;14.68;10.55;;;;;;;13.05;64.28;101218.50;4897918;28;119652;-64
2024/03/13 02:24:28;;;;;;;15.40;10.18;;;;;;;13.09;64.27;101218.31;4910504;28;123097;-64
2024/03/13 02:26:55;;;;;;;17.40;10.05;;;;;;;13.11;64.21;101221.75;4900298;28;124035;-64
2024/03/13 02:29:22;;;;;;;17.67;11.02;;;;;;;13.11;64.17;101222.66;4893758;28;119733;-64
2024/03/13 02:31:50;;;;;;;15.60;10.52;;;;;;;13.11;64.24;101216.44;4899516;28;119082;-63
2024/03/13 02:34:18;;;;;;;20.63;11.55;;;;;;;13.13;64.16;101214.56;4901126;28;125656;-64
2024/03/13 02:36:49;;;;;;;26.35;13.25;;;;;;;13.14;64.31;101216.28;4909021;28;125073;-63
2024/03/13 02:39:18;;;;;;;24.05;12.60;;;;;;;13.17;64.31;101216.16;4900639;28;119232;-64
2024/03/13 02:41:45;;;;;;;28.67;13.73;;;;;;;13.19;64.43;101216.94;4899572;28;119429;-64
2024/03/13 02:44:13;;;;;;;30.48;13.25;;;;;;;13.20;64.53;101216.88;4898476;28;124010;-64
2024/03/13 02:46:43;;;;;;;27.02;13.55;;;;;;;13.23;64.41;101216.69;4896988;28;124188;-64
2024/03/13 02:49:11;;;;;;;26.17;13.07;;;;;;;13.26;64.38;101213.03;4902820;28;120332;-64
2024/03/13 02:51:38;;;;;;;26.67;14.13;;;;;;;13.28;64.51;101213.81;4900199;28;119186;-64
2024/03/13 02:54:05;;;;;;;32.13;15.30;;;;;;;13.29;64.50;101220.84;4895822;28;125347;-64
2024/03/13 02:56:33;;;;;;;28.67;15.00;;;;;;;13.32;64.57;101220.72;4903071;28;123812;-64
2024/03/13 02:59:00;;;;;;;28.63;15.30;;;;;;;13.33;64.72;101211.78;4895658;28;118946;-64
2024/03/13 03:01:28;;;;;;;30.63;15.93;;;;;;;13.35;64.62;101209.91;4895600;28;118189;-64
2024/03/13 03:03:59;;;;;;;32.25;16.40;;;;;;;13.37;64.82;101213.38;4895786;28;124182;-64
2024/03/13 03:06:26;;;;;;;30.10;16.27;;;;;;;13.39;64.78;101211.50;4899931;28;124532;-64
2024/03/13 03:08:54;;;;;;;31.38;16.73;;;;;;;13.40;64.80;101207.88;4899041;28;120382;-63
2024/03/13 03:11:22;;;;;;;38.58;16.40;;;;;;;13.43;64.71;101213.06;4898162;28;119056;-64
2024/03/13 03:13:51;;;;;;;33.85;16.73;;;;;;;13.47;64.85;101207.56;4900607;28;124120;-64
2024/03/13 03:16:19;;;;;;;31.17;16.73;;;;;;;13.47;64.85;101212.88;4913403;28;122903;-64
2024/03/13 03:18:47;;;;;;;28.75;16.48;;;;;;;13.50;64.83;101212.75;4899913;28;119285;-64
2024/03/13 03:21:14;;;;;;;37.05;17.20;;;;;;;13.50;64.92;101210.09;4898648;28;119116;-64
2024/03/13 03:23:44;;;;;;;32.03;16.85;;;;;;;13.53;64.94;101213.44;4895284;28;124098;-64
2024/03/13 03:26:16;;;;;;;31.23;16.90;;;;;;;13.54;64.82;101219.63;4898591;28;126157;-64
2024/03/13 03:28:44;;;;;;;38.40;17.30;;;;;;;13.57;64.94;101219.47;4901484;28;118255;-64
2024/03/13 03:31:11;;;;;;;33.33;17.45;;;;;;;13.59;64.94;101233.56;4895223;28;120018;-64
2024/03/13 03:33:39;;;;;;;31.02;17.17;;;;;;;13.60;64.95;101224.66;4898949;28;123968;-64
2024/03/13 03:36:06;;;;;;;33.95;17.55;;;;;;;13.62;64.81;101217.44;4896806;28;123765;-64
2024/03/13 03:38:33;;;;;;;30.75;18.63;;;;;;;13.65;65.01;101221.75;4898614;28;121235;-63
2024/03/13 03:41:01;;;;;;;35.00;18.70;;;;;;;13.67;65.05;101230.50;4898938;28;120372;-64
2024/03/13 03:43:28;;;;;;;31.92;17.70;;;;;;;13.69;64.92;101233.94;4903145;28;123525;-64
2024/03/13 03:45:57;;;;;;;36.38;18.65;;;;;;;13.69;65.15;101224.16;4898477;28;124616;-65
2024/03/13 03:48:24;;;;;;;34.13;18.00;;;;;;;13.73;64.93;101224.84;4899231;28;119455;-65
2024/03/13 03:50:52;;;;;;;33.60;18.55;;;;;;;13.74;65.26;101232.75;4898461;28;120273;-65
2024/03/13 03:53:19;;;;;;;38.42;18.98;;;;;;;13.78;65.07;101239.66;4909996;28;124139;-66
2024/03/13 03:55:46;;;;;;;37.60;18.85;;;;;;;13.81;65.17;101234.16;4888680;28;123121;-65
2024/03/13 03:58:14;;;;;;;35.50;18.92;;;;;;;13.82;65.20;101235.03;4899719;28;118907;-65
2024/03/13 04:00:42;;;;;;;34.10;18.70;;;;;;;13.84;65.12;101227.81;4904366;28;119093;-65
2024/03/13 04:03:12;;;;;;;33.75;17.58;;;;;;;13.86;65.22;101236.56;4898237;28;124625;-65
2024/03/13 04:05:40;;;;;;;34.42;18.67;;;;;;;13.89;65.14;101238.25;4900170;28;123518;-65
2024/03/13 04:08:07;;;;;;;33.45;17.55;;;;;;;13.91;65.31;101239.03;4892725;28;119624;-64
2024/03/13 04:10:34;;;;;;;32.17;18.27;;;;;;;13.92;65.25;101235.41;4901425;28;118946;-65
2024/03/13 04:13:02;;;;;;;33.17;18.42;;;;;;;13.93;65.35;101237.13;4894740;28;124117;-67
2024/03/13 04:15:29;;;;;;;31.65;17.13;;;;;;;13.95;65.48;101243.22;4904780;28;124174;-64
2024/03/13 04:17:57;;;;;;;33.22;17.60;;;;;;;13.97;65.48;101233.34;4897734;28;119643;-65
2024/03/13 04:20:24;;;;;;;32.75;16.95;;;;;;;13.98;65.35;101235.94;4893513;28;120317;-65
2024/03/13 04:22:54;;;;;;;31.75;17.05;;;;;;;14.02;65.44;101239.31;4894848;28;124085;-64
2024/03/13 04:25:22;;;;;;;30.05;15.82;;;;;;;14.03;65.54;101230.38;4903072;28;122666;-65
2024/03/13 04:27:49;;;;;;;30.45;16.25;;;;;;;14.05;65.54;101236.47;4907877;28;120195;-65
2024/03/13 04:30:17;;;;;;;26.52;15.32;;;;;;;14.06;65.68;101238.19;4906007;28;119955;-65
2024/03/13 04:32:44;;;;;;;27.48;15.32;;;;;;;14.09;65.58;101238.06;4900092;28;124512;-65
2024/03/13 04:35:12;;;;;;;30.90;15.30;;;;;;;14.11;65.74;101241.50;4903397;28;124199;-66
2024/03/13 04:37:39;;;;;;;29.17;14.55;;;;;;;14.14;65.79;101245.78;4899254;28;120632;-65
2024/03/13 04:40:10;;;;;;;28.27;15.23;;;;;;;14.16;65.83;101250.06;4896192;28;118623;-64
2024/03/13 04:42:38;;;;;;;29.05;15.30;;;;;;;14.18;65.82;101248.22;4905218;28;124253;-65
2024/03/13 04:45:06;;;;;;;25.65;15.02;;;;;;;14.20;65.84;101256.97;4901202;28;123167;-65
2024/03/13 04:47:35;;;;;;;24.77;13.70;;;;;;;14.23;65.77;101249.75;4896546;28;119186;-65
2024/03/13 04:50:08;;;;;;;23.80;13.57;;;;;;;14.25;65.80;101247.88;4898017;28;120282;-65
2024/03/13 04:52:36;;;;;;;26.45;13.88;;;;;;;14.28;65.76;101250.34;4897643;28;123179;-65
2024/03/13 04:55:05;;;;;;;22.48;12.95;;;;;;;14.28;65.80;101247.69;4917699;28;123745;-65
2024/03/13 04:57:34;;;;;;;23.17;12.13;;;;;;;14.30;66.01;101256.50;4895974;28;120020;-65
2024/03/13 05:00:03;;;;;;;22.90;11.48;;;;;;;14.32;65.81;101259.94;4900691;28;118036;-65
2024/03/13 05:02:31;;;;;;;18.50;10.57;;;;;;;14.32;65.84;101254.59;4904071;28;124093;-65
2024/03/13 05:04:58;;;;;;;18.17;10.25;;;;;;;14.33;65.95;101258.97;4917975;28;124202;-65
2024/03/13 05:07:26;;;;;;;17.63;9.73;;;;;;;14.33;66.04;101264.28;4910022;28;119249;-65
2024/03/13 05:09:53;;;;;;;19.23;10.23;;;;;;;14.35;66.17;101265.06;4909105;28;119108;-65
2024/03/13 05:12:21;;;;;;;17.52;10.38;;;;;;;14.36;66.12;101272.13;4906848;28;123659;-64
2024/03/13 05:14:48;;;;;;;18.15;10.60;;;;;;;14.38;66.08;101267.59;4908579;28;124392;-65
2024/03/13 05:17:18;;;;;;;15.55;9.77;;;;;;;14.41;66.07;101275.41;4902362;28;120262;-65
2024/03/13 05:19:45;;;;;;;18.45;9.48;;;;;;;14.41;66.15;101275.41;4906478;28;119683;-65
2024/03/13 05:22:13;;;;;;;17.33;9.85;;;;;;;14.42;66.18;101277.13;4900570;28;124242;-65
2024/03/13 05:24:41;;;;;;;18.75;9.52;;;;;;;14.43;66.10;101273.53;4912496;28;123928;-65
2024/03/13 05:27:10;;;;;;;16.08;8.63;;;;;;;14.46;66.12;101278.66;4905757;28;119407;-65
2024/03/13 05:29:37;;;;;;;17.30;8.93;;;;;;;14.47;66.04;101280.41;4898735;28;119141;-65
2024/03/13 05:32:09;;;;;;;18.38;9.50;;;;;;;14.47;66.14;101285.75;4898233;28;124110;-64
2024/03/13 05:34:37;;;;;;;17.90;9.43;;;;;;;14.49;66.04;101283.84;4900471;28;126468;-64
2024/03/13 05:37:06;;;;;;;18.92;9.68;;;;;;;14.50;66.16;101290.88;4907576;28;119242;-64
2024/03/13 05:39:34;;;;;;;19.88;10.57;;;;;;;14.51;66.14;101292.63;4907948;28;119344;-64
2024/03/13 05:42:02;;;;;;;19.15;9.82;;;;;;;14.52;66.09;101293.47;4899201;28;124253;-64
2024/03/13 05:44:30;;;;;;;17.60;9.77;;;;;;;14.51;66.17;101281.97;4908226;28;123385;-65
2024/03/13 05:46:57;;;;;;;18.67;9.68;;;;;;;14.52;66.20;101289.03;4889954;28;119845;-65
2024/03/13 05:49:25;;;;;;;19.77;10.20;;;;;;;14.53;66.17;101285.41;4906825;28;119403;-65
2024/03/13 05:51:55;;;;;;;19.83;9.98;;;;;;;14.54;66.04;101281.81;4897957;28;123177;-65
2024/03/13 05:54:23;;;;;;;19.25;9.70;;;;;;;14.55;66.16;101288.84;4897224;28;124326;-65
2024/03/13 05:56:51;;;;;;;18.15;9.73;;;;;;;14.56;66.08;101285.25;4920875;28;99077;-65
2024/03/13 05:59:18;;;;;;;16.33;9.38;;;;;;;14.55;66.12;101283.50;4921638;28;118302;-64
2024/03/13 06:01:46;;;;;;;17.20;9.82;;;;;;;14.55;66.09;101294.16;4916982;28;124076;-64
2024/03/13 06:04:16;;;;;;;22.63;9.60;;;;;;;14.53;66.14;101296.06;4898800;28;123162;-64
2024/03/13 06:06:43;;;;;;;16.13;9.52;;;;;;;14.54;66.14;101297.78;4917919;28;119895;-64
2024/03/13 06:09:11;;;;;;;18.15;9.48;;;;;;;14.55;66.10;101293.31;4899321;28;120406;-64
2024/03/13 06:11:38;;;;;;;17.92;10.18;;;;;;;14.56;66.08;101295.91;4906179;28;124369;-64
2024/03/13 06:14:07;;;;;;;17.08;8.40;;;;;;;14.57;66.14;101302.97;4902806;28;123826;-64
2024/03/13 06:16:35;;;;;;;16.52;8.43;;;;;;;14.60;66.11;101307.28;4901263;28;119331;-64
2024/03/13 06:19:03;;;;;;;16.48;8.05;;;;;;;14.60;66.15;101302.81;4900835;28;119588;-64
2024/03/13 06:21:30;;;;;;;17.40;8.20;;;;;;;14.60;65.99;101305.47;4898916;28;124259;-64
2024/03/13 06:24:03;;;;;;;16.70;8.70;;;;;;;14.60;66.12;101302.81;4906724;28;125446;-64
2024/03/13 06:26:31;;;;;;;18.63;9.30;;;;;;;14.61;66.17;101303.66;4902730;28;119864;-65
2024/03/13 06:31:45;;;;;;;11.55;5.50;;;;;;;14.62;66.06;101299.19;4897413;28;124353;-64
2024/03/13 06:34:13;;;;;;;13.55;5.65;;;;;;;14.63;65.80;101306.25;4898087;28;124683;-64
2024/03/13 06:36:40;;;;;;;12.30;5.65;;;;;;;14.63;65.91;101306.25;4894120;28;119757;-64
2024/03/13 06:39:09;;;;;;;15.73;6.40;;;;;;;14.63;65.91;101300.94;4902070;28;120004;-65
2024/03/13 06:41:36;;;;;;;14.90;5.78;;;;;;;14.63;65.73;101306.25;4908821;28;124685;-64
2024/03/13 06:44:05;;;;;;;14.13;5.60;;;;;;;14.64;65.87;101308.00;4897136;28;124711;-64
2024/03/13 06:46:33;;;;;;;12.10;5.68;;;;;;;14.66;65.83;101311.44;4902852;28;119628;-65
2024/03/13 06:49:00;;;;;;;14.38;5.95;;;;;;;14.67;65.79;101314.00;4896436;28;119489;-64
2024/03/13 06:51:28;;;;;;;13.15;5.90;;;;;;;14.67;65.72;101319.31;4895833;28;124086;-64
2024/03/13 06:53:55;;;;;;;14.02;6.00;;;;;;;14.68;65.62;101321.06;4897122;28;124572;-64
2024/03/13 06:56:23;;;;;;;14.23;6.35;;;;;;;14.69;65.78;101321.91;4908192;28;120532;-64
2024/03/13 06:58:50;;;;;;;13.27;5.78;;;;;;;14.69;65.62;101316.56;4896513;28;120622;-64
2024/03/13 07:01:18;;;;;;;14.43;6.03;;;;;;;14.70;65.63;101315.66;4898388;28;123405;-66
2024/03/13 07:03:46;;;;;;;15.13;6.28;;;;;;;14.70;65.71;101318.31;4899143;28;124731;-65
2024/03/13 07:06:14;;;;;;;13.25;5.65;;;;;;;14.72;65.69;101321.75;4901989;28;119263;-65
2024/03/13 07:08:42;;;;;;;13.45;5.90;;;;;;;14.72;65.70;101325.28;4920116;28;119062;-65
2024/03/13 07:11:11;;;;;;;14.45;6.68;;;;;;;14.72;65.68;101324.41;4904068;28;124091;-65
2024/03/13 07:13:39;;;;;;;13.63;5.63;;;;;;;14.71;65.57;101330.69;4898396;28;123241;-65
2024/03/13 07:16:06;;;;;;;13.45;6.32;;;;;;;14.71;65.74;101330.69;4904780;28;119406;-65
2024/03/13 07:18:34;;;;;;;17.30;6.60;;;;;;;14.72;65.66;101329.75;4921434;28;119605;-66
2024/03/13 07:21:02;;;;;;;16.35;6.93;;;;;;;14.72;65.51;101332.41;4899041;28;124129;-65
2024/03/13 07:23:29;;;;;;;16.33;6.70;;;;;;;14.72;65.73;101332.41;4905116;28;124435;-65
2024/03/13 07:25:57;;;;;;;17.52;7.10;;;;;;;14.72;65.61;101338.59;4915240;28;119449;-66
2024/03/13 07:28:24;;;;;;;18.30;7.15;;;;;;;14.72;65.66;101332.41;4905080;28;119324;-65
2024/03/13 07:30:52;;;;;;;19.42;7.47;;;;;;;14.71;65.71;101342.22;4904377;28;123233;-65
2024/03/13 07:33:19;;;;;;;18.45;7.10;;;;;;;14.71;65.66;101339.56;4904530;28;124490;-64
2024/03/13 07:35:47;;;;;;;20.23;7.28;;;;;;;14.73;65.59;101347.44;4895122;28;118410;-63
2024/03/13 07:38:14;;;;;;;19.92;7.90;;;;;;;14.73;65.53;101344.78;4905972;28;117949;-63
2024/03/13 07:40:43;;;;;;;19.77;7.78;;;;;;;14.73;65.60;101344.78;4905154;28;124247;-64
2024/03/13 07:43:10;;;;;;;17.77;7.20;;;;;;;14.75;65.56;101348.25;4901096;28;124309;-64
2024/03/13 07:45:42;;;;;;;18.60;7.80;;;;;;;14.75;65.73;101342.94;4896128;28;121064;-64
2024/03/13 07:48:10;;;;;;;18.95;7.82;;;;;;;14.77;65.33;101347.22;4905472;28;119883;-64
2024/03/13 07:50:39;;;;;;;21.83;8.43;;;;;;;14.78;65.42;101358.75;4899685;28;124305;-64
2024/03/13 07:53:06;;;;;;;21.67;7.78;;;;;;;14.78;65.46;101364.06;4918363;28;124115;-63
2024/03/13 07:55:34;;;;;;;20.88;8.15;;;;;;;14.77;65.50;101362.38;4894652;28;120681;-63
2024/03/13 07:58:03;;;;;;;18.25;7.80;;;;;;;14.78;65.44;101358.75;4902052;28;118980;-64
2024/03/13 08:00:35;;;;;;;21.25;8.15;;;;;;;14.80;65.59;101356.84;4900537;28;124214;-63
2024/03/13 08:03:03;;;;;;;19.83;7.95;;;;;;;14.82;65.51;101360.28;4908697;28;123415;-64
2024/03/13 08:05:31;;;;;;;23.13;8.68;;;;;;;14.85;65.60;101360.13;4906285;28;118609;-65
2024/03/13 08:07:59;;;;;;;19.63;8.32;;;;;;;14.86;65.39;101367.19;4899927;28;119050;-66
2024/03/13 08:10:44;;;;;;;21.73;9.32;;;;;;;14.87;65.53;101368.91;4910549;28;124192;-66
2024/03/13 08:13:30;;;;;;;25.97;8.43;;;;;;;14.88;65.44;101375.97;4898521;28;123861;-66
2024/03/13 08:16:15;;;;;;;25.30;9.40;;;;;;;14.89;65.34;101383.00;4898905;28;119271;-66
2024/03/13 08:19:00;;;;;;;27.93;10.17;;;;;;;14.90;65.44;101379.41;4904496;28;119323;-66
2024/03/13 08:21:45;;;;;;;24.30;8.75;;;;;;;14.91;65.36;101386.47;4897651;28;123850;-65
2024/03/13 08:24:30;;;;;;;25.15;9.32;;;;;;;14.92;65.49;101390.00;4898522;28;124107;-65
2024/03/13 08:27:15;;;;;;;20.80;9.27;;;;;;;14.93;65.41;101395.22;4914192;28;119200;-64
2024/03/13 08:29:59;;;;;;;26.00;8.82;;;;;;;14.95;65.43;101388.00;4893261;28;119057;-65
2024/03/13 08:32:45;;;;;;;19.27;8.33;;;;;;;14.95;65.60;101393.34;4903079;28;124003;-65
2024/03/13 08:35:29;;;;;;;21.80;8.03;;;;;;;14.97;65.66;101393.25;4905543;28;123465;-63
2024/03/13 08:38:14;;;;;;;22.33;8.73;;;;;;;14.98;65.35;101403.84;4907369;28;119926;-63
2024/03/13 08:41:02;;;;;;;29.30;9.98;;;;;;;15.02;65.48;101403.69;4901274;28;119770;-64
2024/03/13 08:43:47;;;;;;;32.78;11.20;;;;;;;15.04;65.50;101407.13;4899454;28;123881;-63
2024/03/13 08:46:32;;;;;;;27.47;9.93;;;;;;;15.05;65.26;101411.50;4899143;28;123712;-63
2024/03/13 08:49:17;;;;;;;27.17;10.57;;;;;;;15.06;65.37;101410.59;4902431;28;119385;-63
2024/03/13 08:52:02;;;;;;;26.17;9.67;;;;;;;15.08;65.43;101419.38;4894349;28;118318;-63
2024/03/13 08:54:52;;;;;;;28.05;10.30;;;;;;;15.10;65.58;101422.81;4903612;28;124460;-63
2024/03/13 08:57:37;;;;;;;32.70;10.63;;;;;;;15.11;65.40;101424.53;4902853;28;124206;-63
2024/03/13 09:00:22;;;;;;;27.77;10.73;;;;;;;15.13;65.41;101422.66;4906749;28;119273;-63
2024/03/13 09:03:07;;;;;;;27.73;11.00;;;;;;;15.15;65.27;101426.09;4914854;28;118981;-63
2024/03/13 09:05:52;;;;;;;30.38;11.15;;;;;;;15.18;65.39;101425.91;4897515;28;124413;-62
2024/03/13 09:08:23;;;;;;;27.98;10.85;;;;;;;15.18;65.17;101429.47;4904953;28;124456;-63
2024/03/13 09:11:12;;;;;;;28.88;11.20;;;;;;;15.20;65.23;101434.72;4892664;28;119404;-63
2024/03/13 09:13:41;;;;;;;30.40;11.00;;;;;;;15.22;65.31;101427.47;4898686;28;118933;-63
2024/03/13 09:16:12;;;;;;;35.47;11.43;;;;;;;15.25;65.28;101431.78;4898880;28;124799;-63
2024/03/13 09:18:41;;;;;;;25.77;10.52;;;;;;;15.28;65.31;101427.13;4899426;28;124133;-63
2024/03/13 09:21:12;;;;;;;26.02;10.20;;;;;;;15.31;65.50;101432.31;4893748;28;119352;-63
2024/03/13 09:23:39;;;;;;;29.25;10.77;;;;;;;15.35;65.41;101433.84;4901258;28;119939;-63
2024/03/13 09:26:07;;;;;;;28.58;11.40;;;;;;;15.38;65.32;101423.00;4903748;28;124136;-62
2024/03/13 09:28:34;;;;;;;30.38;11.35;;;;;;;15.42;65.28;101428.16;4896330;28;124011;-63
2024/03/13 09:31:02;;;;;;;28.13;11.88;;;;;;;15.46;65.22;101424.38;4901307;28;122495;-63
2024/03/13 09:33:31;;;;;;;29.27;12.38;;;;;;;15.48;65.37;101425.16;4901981;28;119792;-63
2024/03/13 09:36:00;;;;;;;28.80;11.68;;;;;;;15.52;65.30;101424.03;4897630;28;125075;-62
2024/03/13 09:38:28;;;;;;;32.78;12.25;;;;;;;15.56;65.22;101426.44;4903019;28;122966;-63
2024/03/13 09:40:55;;;;;;;35.13;13.77;;;;;;;15.60;65.37;101432.47;4899162;28;119774;-63
2024/03/13 09:43:27;;;;;;;35.22;13.77;;;;;;;15.62;65.17;101425.25;4903793;28;118918;-63
2024/03/13 09:45:55;;;;;;;34.67;13.27;;;;;;;15.67;65.19;101432.97;4901875;28;124179;-63
2024/03/13 09:48:24;;;;;;;29.38;12.75;;;;;;;15.69;65.08;101426.63;4903645;28;124674;-64
2024/03/13 09:50:53;;;;;;;33.13;13.15;;;;;;;15.72;65.18;101437.09;4895467;28;118623;-64
2024/03/13 09:53:23;;;;;;;33.45;13.80;;;;;;;15.76;65.25;101432.47;4893619;28;119559;-65
2024/03/13 09:55:51;;;;;;;32.95;13.13;;;;;;;15.80;65.15;101438.50;4905073;28;124137;-65
2024/03/13 09:58:18;;;;;;;33.28;13.05;;;;;;;15.84;65.11;101434.72;4903027;28;124092;-65
2024/03/13 10:00:46;;;;;;;31.95;12.88;;;;;;;15.88;65.12;101446.94;4907574;28;118296;-65
2024/03/13 10:03:21;;;;;;;27.17;11.60;;;;;;;15.88;64.95;101436.25;4904382;28;119681;-65
2024/03/13 10:05:52;;;;;;;28.48;11.57;;;;;;;15.89;64.92;101443.31;4898332;28;123320;-65
2024/03/13 10:08:21;;;;;;;29.30;11.23;;;;;;;15.90;64.97;101445.06;4903088;28;124677;-64
2024/03/13 10:10:49;;;;;;;30.00;11.90;;;;;;;15.90;64.88;101455.75;4898398;28;119456;-64
2024/03/13 10:13:17;;;;;;;35.47;12.73;;;;;;;15.88;64.69;101457.63;4904012;28;118911;-65
2024/03/13 10:15:47;;;;;;;33.42;12.52;;;;;;;15.85;64.63;101452.47;4901105;28;124122;-65
2024/03/13 10:18:18;;;;;;;33.95;12.73;;;;;;;15.82;64.61;101463.31;4897226;28;124078;-64
2024/03/13 10:20:59;;;;;;;32.85;13.27;;;;;;;15.79;64.45;101468.84;4901067;28;120531;-65
2024/03/13 10:23:29;;;;;;;33.10;13.50;;;;;;;15.76;64.56;101468.09;4913497;28;118894;-64
2024/03/13 10:25:58;;;;;;;37.55;13.48;;;;;;;15.73;64.40;101465.56;4896370;28;124046;-64
2024/03/13 10:28:29;;;;;;;34.13;14.07;;;;;;;15.70;64.49;101463.03;4896914;28;123927;-64
2024/03/13 10:30:59;;;;;;;36.03;14.05;;;;;;;15.69;64.48;101468.47;4902291;28;119568;-64
2024/03/13 10:33:28;;;;;;;31.35;13.48;;;;;;;15.67;64.46;101465.91;4902556;28;119184;-64
2024/03/13 10:35:57;;;;;;;34.92;14.32;;;;;;;15.66;64.49;101464.16;4898233;28;124194;-65
2024/03/13 10:38:24;;;;;;;32.45;13.77;;;;;;;15.67;64.46;101470.34;4899606;28;123831;-65
2024/03/13 10:40:52;;;;;;;35.38;14.18;;;;;;;15.67;64.54;101473.91;4905532;28;118888;-64
2024/03/13 10:43:19;;;;;;;38.47;14.68;;;;;;;15.67;64.62;101465.91;4900223;28;119112;-65
2024/03/13 10:45:49;;;;;;;36.28;13.88;;;;;;;15.69;64.52;101471.13;4902747;28;124226;-64
2024/03/13 10:48:17;;;;;;;35.05;13.30;;;;;;;15.69;64.50;101469.34;4903239;28;124040;-64
2024/03/13 10:50:48;;;;;;;34.55;12.85;;;;;;;15.71;64.64;101470.13;4904888;28;119272;-64
2024/03/13 10:53:19;;;;;;;28.88;12.25;;;;;;;15.74;64.65;101472.63;4897130;28;119140;-64
2024/03/13 10:55:47;;;;;;;34.17;13.48;;;;;;;15.77;64.53;101467.13;4897768;28;124216;-64
2024/03/13 10:58:22;;;;;;;29.58;13.63;;;;;;;15.78;64.70;101473.31;4896585;28;124364;-64
2024/03/13 11:00:50;;;;;;;31.70;12.90;;;;;;;15.82;64.47;101466.00;4902026;28;119394;-65
2024/03/13 11:03:19;;;;;;;28.95;12.48;;;;;;;15.84;64.46;101466.75;4896721;28;118845;-64
2024/03/13 11:05:49;;;;;;;30.15;12.68;;;;;;;15.86;64.55;101470.19;4900919;28;124625;-65
2024/03/13 11:08:17;;;;;;;29.17;12.23;;;;;;;15.88;64.49;101468.31;4898061;28;124485;-65
2024/03/13 11:10:46;;;;;;;30.08;12.45;;;;;;;15.91;64.50;101470.81;4898028;28;120321;-64
2024/03/13 11:13:33;;;;;;;28.00;11.85;;;;;;;15.92;64.30;101470.72;4903827;28;120401;-64
2024/03/13 11:16:06;;;;;;;28.75;12.80;;;;;;;15.93;64.40;101468.91;4902494;28;124285;-64
2024/03/13 11:18:37;;;;;;;28.10;12.68;;;;;;;15.93;64.42;101466.25;4896727;28;125447;-64
2024/03/13 11:21:09;;;;;;;33.67;12.82;;;;;;;15.92;64.24;101469.88;4897817;28;119434;-64
2024/03/13 11:23:41;;;;;;;30.50;12.20;;;;;;;15.93;64.26;101467.09;4901181;28;119110;-64
2024/03/13 11:26:11;;;;;;;27.90;11.73;;;;;;;15.94;64.36;101465.31;4902507;28;125491;-64
2024/03/13 11:28:41;;;;;;;28.80;12.02;;;;;;;15.95;64.39;101469.69;4900706;28;124052;-64
2024/03/13 11:31:09;;;;;;;23.80;11.50;;;;;;;16.00;64.26;101467.59;4901595;28;120219;-65
2024/03/13 11:33:38;;;;;;;26.45;11.32;;;;;;;16.02;64.25;101471.06;4917092;28;118183;-64
2024/03/13 11:36:09;;;;;;;26.25;10.77;;;;;;;16.05;64.32;101478.03;4898640;28;124914;-64
2024/03/13 11:38:38;;;;;;;25.50;10.88;;;;;;;16.06;64.19;101472.59;4896403;28;124320;-64